sensor_id;sensor_type;location;lat;lon;timestamp;temperature;humidity
10263;DHT22;5177;50.068;8.156;2024-01-15T00:01:14;-0.80;3.40
10263;DHT22;5177;50.068;8.156;2024-01-15T00:03:39;-0.70;1.00
10263;DHT22;5177;50.068;8.156;2024-01-15T00:06:05;-0.70;99.90
10263;DHT22;5177;50.068;8.156;2024-01-15T00:08:30;-0.70;99.90
10263;DHT22;5177;50.068;8.156;2024-01-15T00:10:56;-0.80;99.90
10263;DHT22;5177;50.068;8.156;2024-01-15T00:13:21;-0.70;1.00
10263;DHT22;5177;50.068;8.156;2024-01-15T00:15:47;-0.70;99.90
10263;DHT22;5177;50.068;8.156;2024-01-15T00:18:12;-0.80;99.90
10263;DHT22;5177;50.068;8.156;2024-01-15T00:20:38;-0.70;99.90
10263;DHT22;5177;50.068;8.156;2024-01-15T00:23:03;-0.70;99.90
10263;DHT22;5177;50.068;8.156;2024-01-15T00:25:29;-0.70;99.90
10263;DHT22;5177;50.068;8.156;2024-01-15T00:27:54;-0.60;99.90
10263;DHT22;5177;50.068;8.156;2024-01-15T00:30:19;-0.60;99.90
10263;DHT22;5177;50.068;8.156;2024-01-15T00:32:45;-0.60;99.90
10263;DHT22;5177;50.068;8.156;2024-01-15T00:35:11;-0.50;99.90
10263;DHT22;5177;50.068;8.156;2024-01-15T00:37:36;-0.50;99.90
10263;DHT22;5177;50.068;8.156;2024-01-15T00:40:02;-0.50;99.90
10263;DHT22;5177;50.068;8.156;2024-01-15T00:42:28;-0.60;99.90
10263;DHT22;5177;50.068;8.156;2024-01-15T00:44:53;-0.60;99.90
10263;DHT22;5177;50.068;8.156;2024-01-15T00:47:19;-0.50;99.90
10263;DHT22;5177;50.068;8.156;2024-01-15T00:49:45;-0.50;99.90
10263;DHT22;5177;50.068;8.156;2024-01-15T00:52:10;-0.50;1.00
10263;DHT22;5177;50.068;8.156;2024-01-15T00:54:36;-0.50;18.00
10263;DHT22;5177;50.068;8.156;2024-01-15T00:57:01;-0.50;1.00
10263;DHT22;5177;50.068;8.156;2024-01-15T00:59:27;-0.60;1.00
10263;DHT22;5177;50.068;8.156;2024-01-15T01:01:52;-0.50;54.80
10263;DHT22;5177;50.068;8.156;2024-01-15T01:04:18;-0.50;5.60
10263;DHT22;5177;50.068;8.156;2024-01-15T01:06:43;-0.50;16.40
10263;DHT22;5177;50.068;8.156;2024-01-15T01:09:09;-0.50;1.00
10263;DHT22;5177;50.068;8.156;2024-01-15T01:11:34;-0.50;1.00
10263;DHT22;5177;50.068;8.156;2024-01-15T01:14:00;-0.50;1.00
10263;DHT22;5177;50.068;8.156;2024-01-15T01:16:26;-0.60;1.00
10263;DHT22;5177;50.068;8.156;2024-01-15T01:18:52;-0.50;1.00
10263;DHT22;5177;50.068;8.156;2024-01-15T01:21:17;-0.50;1.00
10263;DHT22;5177;50.068;8.156;2024-01-15T01:23:43;-0.50;1.00
10263;DHT22;5177;50.068;8.156;2024-01-15T01:26:08;-0.50;1.00
10263;DHT22;5177;50.068;8.156;2024-01-15T01:28:34;-0.50;1.00
10263;DHT22;5177;50.068;8.156;2024-01-15T01:30:59;-0.50;1.00
10263;DHT22;5177;50.068;8.156;2024-01-15T01:33:25;-0.40;1.00
10263;DHT22;5177;50.068;8.156;2024-01-15T01:35:50;-0.40;1.00
10263;DHT22;5177;50.068;8.156;2024-01-15T01:38:16;-0.50;1.00
10263;DHT22;5177;50.068;8.156;2024-01-15T01:40:41;-0.50;1.00
10263;DHT22;5177;50.068;8.156;2024-01-15T01:43:08;-0.50;1.00
10263;DHT22;5177;50.068;8.156;2024-01-15T01:45:34;-0.50;1.00
10263;DHT22;5177;50.068;8.156;2024-01-15T01:48:00;-0.60;1.00
10263;DHT22;5177;50.068;8.156;2024-01-15T01:50:25;-0.50;1.00
10263;DHT22;5177;50.068;8.156;2024-01-15T01:52:51;-0.60;1.00
10263;DHT22;5177;50.068;8.156;2024-01-15T01:55:16;-0.60;1.00
10263;DHT22;5177;50.068;8.156;2024-01-15T01:57:43;-0.60;1.00
10263;DHT22;5177;50.068;8.156;2024-01-15T02:00:09;-0.50;1.00
10263;DHT22;5177;50.068;8.156;2024-01-15T02:02:35;-0.50;21.10
10263;DHT22;5177;50.068;8.156;2024-01-15T02:05:01;-0.50;1.00
10263;DHT22;5177;50.068;8.156;2024-01-15T02:07:26;-0.50;1.00
10263;DHT22;5177;50.068;8.156;2024-01-15T02:09:52;-0.40;1.00
10263;DHT22;5177;50.068;8.156;2024-01-15T02:12:18;-0.50;1.00
10263;DHT22;5177;50.068;8.156;2024-01-15T02:14:43;-0.50;1.00
10263;DHT22;5177;50.068;8.156;2024-01-15T02:17:09;-0.40;1.00
10263;DHT22;5177;50.068;8.156;2024-01-15T02:19:34;-0.30;1.00
10263;DHT22;5177;50.068;8.156;2024-01-15T02:22:00;-0.30;1.00
10263;DHT22;5177;50.068;8.156;2024-01-15T02:24:25;-0.30;1.00
10263;DHT22;5177;50.068;8.156;2024-01-15T02:26:51;-0.30;1.00
10263;DHT22;5177;50.068;8.156;2024-01-15T02:29:16;-0.20;1.00
10263;DHT22;5177;50.068;8.156;2024-01-15T02:31:42;-0.30;1.00
10263;DHT22;5177;50.068;8.156;2024-01-15T02:34:08;-0.30;1.00
10263;DHT22;5177;50.068;8.156;2024-01-15T02:36:33;-0.20;1.00
10263;DHT22;5177;50.068;8.156;2024-01-15T02:38:59;-0.20;1.00
10263;DHT22;5177;50.068;8.156;2024-01-15T02:41:24;-0.20;1.00
10263;DHT22;5177;50.068;8.156;2024-01-15T02:43:50;-0.10;1.00
10263;DHT22;5177;50.068;8.156;2024-01-15T02:46:15;-0.10;1.00
10263;DHT22;5177;50.068;8.156;2024-01-15T02:48:41;-0.10;1.00
10263;DHT22;5177;50.068;8.156;2024-01-15T02:51:07;-0.10;1.00
10263;DHT22;5177;50.068;8.156;2024-01-15T02:53:32;-0.10;1.00
10263;DHT22;5177;50.068;8.156;2024-01-15T02:55:58;-0.20;1.00
10263;DHT22;5177;50.068;8.156;2024-01-15T02:58:23;-0.20;1.00
10263;DHT22;5177;50.068;8.156;2024-01-15T03:00:48;-0.20;1.00
10263;DHT22;5177;50.068;8.156;2024-01-15T03:03:14;-0.30;1.00
10263;DHT22;5177;50.068;8.156;2024-01-15T03:05:39;-0.20;1.00
10263;DHT22;5177;50.068;8.156;2024-01-15T03:08:17;-0.20;1.00
10263;DHT22;5177;50.068;8.156;2024-01-15T03:10:42;-0.20;1.00
10263;DHT22;5177;50.068;8.156;2024-01-15T03:13:08;-0.20;1.00
10263;DHT22;5177;50.068;8.156;2024-01-15T03:15:34;-0.20;1.00
10263;DHT22;5177;50.068;8.156;2024-01-15T03:17:59;-0.20;1.00
10263;DHT22;5177;50.068;8.156;2024-01-15T03:20:24;-0.20;1.00
10263;DHT22;5177;50.068;8.156;2024-01-15T03:22:50;-0.10;1.00
10263;DHT22;5177;50.068;8.156;2024-01-15T03:25:16;-0.20;1.00
10263;DHT22;5177;50.068;8.156;2024-01-15T03:30:31;-0.20;1.00
10263;DHT22;5177;50.068;8.156;2024-01-15T03:32:56;-0.20;1.00
10263;DHT22;5177;50.068;8.156;2024-01-15T03:35:22;-0.10;99.90
10263;DHT22;5177;50.068;8.156;2024-01-15T03:37:47;-0.10;1.00
10263;DHT22;5177;50.068;8.156;2024-01-15T03:40:13;-0.10;1.00
10263;DHT22;5177;50.068;8.156;2024-01-15T03:42:38;0.00;1.00
10263;DHT22;5177;50.068;8.156;2024-01-15T03:45:04;-0.10;1.00
10263;DHT22;5177;50.068;8.156;2024-01-15T03:47:29;0.00;1.00
10263;DHT22;5177;50.068;8.156;2024-01-15T03:49:55;-0.10;1.00
10263;DHT22;5177;50.068;8.156;2024-01-15T03:52:20;0.00;1.00
10263;DHT22;5177;50.068;8.156;2024-01-15T03:54:46;-0.10;1.00
10263;DHT22;5177;50.068;8.156;2024-01-15T03:57:11;-0.10;1.00
10263;DHT22;5177;50.068;8.156;2024-01-15T03:59:37;-0.10;1.00
10263;DHT22;5177;50.068;8.156;2024-01-15T04:02:02;-0.10;1.00
10263;DHT22;5177;50.068;8.156;2024-01-15T04:04:29;-0.10;1.00
10263;DHT22;5177;50.068;8.156;2024-01-15T04:06:54;-0.10;1.00
10263;DHT22;5177;50.068;8.156;2024-01-15T04:09:20;0.00;1.00
10263;DHT22;5177;50.068;8.156;2024-01-15T04:11:45;0.00;1.00
10263;DHT22;5177;50.068;8.156;2024-01-15T04:14:11;0.00;1.00
10263;DHT22;5177;50.068;8.156;2024-01-15T04:16:37;-0.10;1.00
10263;DHT22;5177;50.068;8.156;2024-01-15T04:19:02;0.00;1.00
10263;DHT22;5177;50.068;8.156;2024-01-15T04:21:28;0.00;1.00
10263;DHT22;5177;50.068;8.156;2024-01-15T04:23:53;0.00;1.00
10263;DHT22;5177;50.068;8.156;2024-01-15T04:26:19;0.00;1.00
10263;DHT22;5177;50.068;8.156;2024-01-15T04:28:44;0.00;1.00
10263;DHT22;5177;50.068;8.156;2024-01-15T04:31:19;0.00;1.00
10263;DHT22;5177;50.068;8.156;2024-01-15T04:33:45;0.00;1.00
10263;DHT22;5177;50.068;8.156;2024-01-15T04:36:11;0.00;1.00
10263;DHT22;5177;50.068;8.156;2024-01-15T04:38:40;0.10;1.00
10263;DHT22;5177;50.068;8.156;2024-01-15T04:41:06;0.10;1.00
10263;DHT22;5177;50.068;8.156;2024-01-15T04:43:35;0.10;1.00
10263;DHT22;5177;50.068;8.156;2024-01-15T04:46:00;0.10;68.90
10263;DHT22;5177;50.068;8.156;2024-01-15T04:48:25;0.10;99.90
10263;DHT22;5177;50.068;8.156;2024-01-15T04:50:51;0.00;1.00
10263;DHT22;5177;50.068;8.156;2024-01-15T04:53:16;0.20;1.00
10263;DHT22;5177;50.068;8.156;2024-01-15T04:55:42;0.20;1.00
10263;DHT22;5177;50.068;8.156;2024-01-15T04:58:07;0.10;1.00
10263;DHT22;5177;50.068;8.156;2024-01-15T05:00:33;0.10;1.00
10263;DHT22;5177;50.068;8.156;2024-01-15T05:02:58;0.10;1.00
10263;DHT22;5177;50.068;8.156;2024-01-15T05:05:24;0.10;1.00
10263;DHT22;5177;50.068;8.156;2024-01-15T05:07:49;0.00;1.00
10263;DHT22;5177;50.068;8.156;2024-01-15T05:10:15;0.00;1.00
10263;DHT22;5177;50.068;8.156;2024-01-15T05:12:40;0.00;1.00
10263;DHT22;5177;50.068;8.156;2024-01-15T05:15:06;0.00;1.00
10263;DHT22;5177;50.068;8.156;2024-01-15T05:17:31;0.00;46.20
10263;DHT22;5177;50.068;8.156;2024-01-15T05:19:57;0.00;99.90
10263;DHT22;5177;50.068;8.156;2024-01-15T05:22:22;0.00;1.00
10263;DHT22;5177;50.068;8.156;2024-01-15T05:24:50;0.00;96.30
10263;DHT22;5177;50.068;8.156;2024-01-15T05:27:15;0.00;99.90
10263;DHT22;5177;50.068;8.156;2024-01-15T05:29:40;0.00;1.00
10263;DHT22;5177;50.068;8.156;2024-01-15T05:32:06;0.00;1.00
10263;DHT22;5177;50.068;8.156;2024-01-15T05:34:31;-0.10;99.90
10263;DHT22;5177;50.068;8.156;2024-01-15T05:36:57;-0.10;1.00
10263;DHT22;5177;50.068;8.156;2024-01-15T05:39:24;-0.10;1.00
10263;DHT22;5177;50.068;8.156;2024-01-15T05:41:50;-0.10;1.00
10263;DHT22;5177;50.068;8.156;2024-01-15T05:44:15;-0.10;1.00
10263;DHT22;5177;50.068;8.156;2024-01-15T05:46:41;-0.10;1.00
10263;DHT22;5177;50.068;8.156;2024-01-15T05:49:06;-0.10;1.00
10263;DHT22;5177;50.068;8.156;2024-01-15T05:51:32;-0.10;99.90
10263;DHT22;5177;50.068;8.156;2024-01-15T05:53:57;-0.10;91.80
10263;DHT22;5177;50.068;8.156;2024-01-15T05:56:23;-0.10;99.90
10263;DHT22;5177;50.068;8.156;2024-01-15T05:58:49;0.00;1.00
10263;DHT22;5177;50.068;8.156;2024-01-15T06:01:15;0.00;1.00
10263;DHT22;5177;50.068;8.156;2024-01-15T06:03:40;-0.10;99.90
10263;DHT22;5177;50.068;8.156;2024-01-15T06:06:06;0.00;99.90
10263;DHT22;5177;50.068;8.156;2024-01-15T06:08:32;0.00;99.90
10263;DHT22;5177;50.068;8.156;2024-01-15T06:10:57;0.00;99.90
10263;DHT22;5177;50.068;8.156;2024-01-15T06:13:23;0.10;99.90
10263;DHT22;5177;50.068;8.156;2024-01-15T06:15:48;0.00;99.90
10263;DHT22;5177;50.068;8.156;2024-01-15T06:18:14;0.00;99.90
10263;DHT22;5177;50.068;8.156;2024-01-15T06:20:39;0.10;1.00
10263;DHT22;5177;50.068;8.156;2024-01-15T06:23:05;0.10;1.00
10263;DHT22;5177;50.068;8.156;2024-01-15T06:25:30;0.10;1.00
10263;DHT22;5177;50.068;8.156;2024-01-15T06:27:56;0.10;1.00
10263;DHT22;5177;50.068;8.156;2024-01-15T06:30:21;0.20;1.00
10263;DHT22;5177;50.068;8.156;2024-01-15T06:32:47;0.20;2.60
10263;DHT22;5177;50.068;8.156;2024-01-15T06:35:12;0.20;99.90
10263;DHT22;5177;50.068;8.156;2024-01-15T06:37:38;0.20;99.90
10263;DHT22;5177;50.068;8.156;2024-01-15T06:40:03;0.10;99.90
10263;DHT22;5177;50.068;8.156;2024-01-15T06:42:30;0.20;1.00
10263;DHT22;5177;50.068;8.156;2024-01-15T06:44:56;0.20;99.90
10263;DHT22;5177;50.068;8.156;2024-01-15T06:47:21;0.20;99.90
10263;DHT22;5177;50.068;8.156;2024-01-15T06:49:47;0.20;99.90
10263;DHT22;5177;50.068;8.156;2024-01-15T06:52:12;0.10;99.90
10263;DHT22;5177;50.068;8.156;2024-01-15T06:54:38;0.20;1.00
10263;DHT22;5177;50.068;8.156;2024-01-15T06:57:03;0.20;1.00
10263;DHT22;5177;50.068;8.156;2024-01-15T06:59:29;0.20;1.00
10263;DHT22;5177;50.068;8.156;2024-01-15T07:01:55;0.20;1.00
10263;DHT22;5177;50.068;8.156;2024-01-15T07:04:20;0.20;99.90
10263;DHT22;5177;50.068;8.156;2024-01-15T07:06:46;0.30;99.90
10263;DHT22;5177;50.068;8.156;2024-01-15T07:09:13;0.30;99.90
10263;DHT22;5177;50.068;8.156;2024-01-15T07:11:38;0.20;99.90
10263;DHT22;5177;50.068;8.156;2024-01-15T07:14:09;0.20;1.00
10263;DHT22;5177;50.068;8.156;2024-01-15T07:16:34;0.30;1.00
10263;DHT22;5177;50.068;8.156;2024-01-15T07:19:00;0.30;1.00
10263;DHT22;5177;50.068;8.156;2024-01-15T07:21:26;0.30;99.90
10263;DHT22;5177;50.068;8.156;2024-01-15T07:23:51;0.20;99.90
10263;DHT22;5177;50.068;8.156;2024-01-15T07:26:16;0.30;1.00
10263;DHT22;5177;50.068;8.156;2024-01-15T07:28:42;0.30;1.00
10263;DHT22;5177;50.068;8.156;2024-01-15T07:31:08;0.30;1.00
10263;DHT22;5177;50.068;8.156;2024-01-15T07:33:34;0.30;1.00
10263;DHT22;5177;50.068;8.156;2024-01-15T07:36:00;0.30;99.90
10263;DHT22;5177;50.068;8.156;2024-01-15T07:38:26;0.30;99.90
10263;DHT22;5177;50.068;8.156;2024-01-15T07:40:52;0.30;99.90
10263;DHT22;5177;50.068;8.156;2024-01-15T07:43:19;0.30;99.90
10263;DHT22;5177;50.068;8.156;2024-01-15T07:45:44;0.30;99.90
10263;DHT22;5177;50.068;8.156;2024-01-15T07:48:10;0.30;99.90
10263;DHT22;5177;50.068;8.156;2024-01-15T07:50:36;0.30;1.00
10263;DHT22;5177;50.068;8.156;2024-01-15T07:53:01;0.30;1.00
10263;DHT22;5177;50.068;8.156;2024-01-15T07:55:27;0.30;99.90
10263;DHT22;5177;50.068;8.156;2024-01-15T07:57:52;0.40;1.00
10263;DHT22;5177;50.068;8.156;2024-01-15T08:00:18;0.40;1.00
10263;DHT22;5177;50.068;8.156;2024-01-15T08:02:44;0.30;1.00
10263;DHT22;5177;50.068;8.156;2024-01-15T08:05:10;0.40;99.90
10263;DHT22;5177;50.068;8.156;2024-01-15T08:07:35;0.50;99.90
10263;DHT22;5177;50.068;8.156;2024-01-15T08:10:01;0.40;99.90
10263;DHT22;5177;50.068;8.156;2024-01-15T08:12:26;0.50;99.90
10263;DHT22;5177;50.068;8.156;2024-01-15T08:14:52;0.50;99.90
10263;DHT22;5177;50.068;8.156;2024-01-15T08:17:17;0.60;99.90
10263;DHT22;5177;50.068;8.156;2024-01-15T08:19:43;0.60;99.90
10263;DHT22;5177;50.068;8.156;2024-01-15T08:22:09;0.60;99.90
10263;DHT22;5177;50.068;8.156;2024-01-15T08:24:35;0.60;99.90
10263;DHT22;5177;50.068;8.156;2024-01-15T08:27:00;0.60;99.90
10263;DHT22;5177;50.068;8.156;2024-01-15T08:29:26;0.60;99.90
10263;DHT22;5177;50.068;8.156;2024-01-15T08:31:51;0.60;39.50
10263;DHT22;5177;50.068;8.156;2024-01-15T08:34:17;0.70;82.70
10263;DHT22;5177;50.068;8.156;2024-01-15T08:36:42;0.70;99.90
10263;DHT22;5177;50.068;8.156;2024-01-15T08:39:08;0.80;71.80
10263;DHT22;5177;50.068;8.156;2024-01-15T08:41:34;0.80;1.00
10263;DHT22;5177;50.068;8.156;2024-01-15T08:44:00;0.80;1.00
10263;DHT22;5177;50.068;8.156;2024-01-15T08:46:25;0.80;1.00
10263;DHT22;5177;50.068;8.156;2024-01-15T08:48:50;0.90;1.00
10263;DHT22;5177;50.068;8.156;2024-01-15T08:51:16;0.80;1.00
10263;DHT22;5177;50.068;8.156;2024-01-15T08:53:43;0.90;1.00
10263;DHT22;5177;50.068;8.156;2024-01-15T08:56:09;0.90;5.70
10263;DHT22;5177;50.068;8.156;2024-01-15T08:58:34;1.00;54.50
10263;DHT22;5177;50.068;8.156;2024-01-15T09:01:00;1.00;1.00
10263;DHT22;5177;50.068;8.156;2024-01-15T09:03:25;1.10;1.00
10263;DHT22;5177;50.068;8.156;2024-01-15T09:05:51;1.10;1.00
10263;DHT22;5177;50.068;8.156;2024-01-15T09:08:16;1.10;1.00
10263;DHT22;5177;50.068;8.156;2024-01-15T09:10:42;1.10;1.00
10263;DHT22;5177;50.068;8.156;2024-01-15T09:13:07;1.10;1.00
10263;DHT22;5177;50.068;8.156;2024-01-15T09:15:33;1.00;1.00
10263;DHT22;5177;50.068;8.156;2024-01-15T09:17:59;1.00;1.00
10263;DHT22;5177;50.068;8.156;2024-01-15T09:20:24;1.00;1.00
10263;DHT22;5177;50.068;8.156;2024-01-15T09:22:51;1.00;1.00
10263;DHT22;5177;50.068;8.156;2024-01-15T09:25:16;1.10;1.00
10263;DHT22;5177;50.068;8.156;2024-01-15T09:27:42;1.20;1.00
10263;DHT22;5177;50.068;8.156;2024-01-15T09:30:08;1.20;1.00
10263;DHT22;5177;50.068;8.156;2024-01-15T09:32:33;1.20;1.00
10263;DHT22;5177;50.068;8.156;2024-01-15T09:34:59;1.20;1.00
10263;DHT22;5177;50.068;8.156;2024-01-15T09:37:25;1.20;1.00
10263;DHT22;5177;50.068;8.156;2024-01-15T09:39:50;1.10;1.00
10263;DHT22;5177;50.068;8.156;2024-01-15T09:42:16;1.20;1.00
10263;DHT22;5177;50.068;8.156;2024-01-15T09:44:41;1.20;1.00
10263;DHT22;5177;50.068;8.156;2024-01-15T09:47:07;1.20;1.00
10263;DHT22;5177;50.068;8.156;2024-01-15T09:49:33;1.20;1.00
10263;DHT22;5177;50.068;8.156;2024-01-15T09:51:59;1.20;1.00
10263;DHT22;5177;50.068;8.156;2024-01-15T09:54:25;1.20;1.00
10263;DHT22;5177;50.068;8.156;2024-01-15T09:56:51;1.20;1.00
10263;DHT22;5177;50.068;8.156;2024-01-15T09:59:16;1.20;1.00
10263;DHT22;5177;50.068;8.156;2024-01-15T10:01:43;1.20;1.00
10263;DHT22;5177;50.068;8.156;2024-01-15T10:04:10;1.30;1.00
10263;DHT22;5177;50.068;8.156;2024-01-15T10:06:35;1.30;1.00
10263;DHT22;5177;50.068;8.156;2024-01-15T10:09:01;1.40;1.00
10263;DHT22;5177;50.068;8.156;2024-01-15T10:11:28;1.50;1.00
10263;DHT22;5177;50.068;8.156;2024-01-15T10:13:54;1.60;1.00
10263;DHT22;5177;50.068;8.156;2024-01-15T10:16:22;1.60;1.00
10263;DHT22;5177;50.068;8.156;2024-01-15T10:18:48;1.70;1.00
10263;DHT22;5177;50.068;8.156;2024-01-15T10:21:14;1.70;1.00
10263;DHT22;5177;50.068;8.156;2024-01-15T10:23:41;1.80;99.90
10263;DHT22;5177;50.068;8.156;2024-01-15T10:26:06;1.70;1.00
10263;DHT22;5177;50.068;8.156;2024-01-15T10:28:32;1.70;99.90
10263;DHT22;5177;50.068;8.156;2024-01-15T10:30:58;1.60;1.00
10263;DHT22;5177;50.068;8.156;2024-01-15T10:33:26;1.60;1.00
10263;DHT22;5177;50.068;8.156;2024-01-15T10:35:55;1.70;1.00
10263;DHT22;5177;50.068;8.156;2024-01-15T10:38:21;1.60;1.00
10263;DHT22;5177;50.068;8.156;2024-01-15T10:40:48;1.50;1.00
10263;DHT22;5177;50.068;8.156;2024-01-15T10:43:13;1.50;1.00
10263;DHT22;5177;50.068;8.156;2024-01-15T10:45:38;1.40;1.00
10263;DHT22;5177;50.068;8.156;2024-01-15T10:48:04;1.30;1.00
10263;DHT22;5177;50.068;8.156;2024-01-15T10:50:30;1.40;1.00
10263;DHT22;5177;50.068;8.156;2024-01-15T10:52:57;1.50;1.00
10263;DHT22;5177;50.068;8.156;2024-01-15T10:55:23;1.60;1.00
10263;DHT22;5177;50.068;8.156;2024-01-15T10:57:49;1.70;1.00
10263;DHT22;5177;50.068;8.156;2024-01-15T11:00:15;1.80;1.00
10263;DHT22;5177;50.068;8.156;2024-01-15T11:02:40;1.80;1.00
10263;DHT22;5177;50.068;8.156;2024-01-15T11:05:07;1.90;1.00
10263;DHT22;5177;50.068;8.156;2024-01-15T11:07:32;1.80;1.00
10263;DHT22;5177;50.068;8.156;2024-01-15T11:09:58;1.80;1.00
10263;DHT22;5177;50.068;8.156;2024-01-15T11:12:26;1.90;1.00
10263;DHT22;5177;50.068;8.156;2024-01-15T11:15:00;1.90;1.00
10263;DHT22;5177;50.068;8.156;2024-01-15T11:17:26;1.90;99.90
10263;DHT22;5177;50.068;8.156;2024-01-15T11:19:52;2.00;99.90
10263;DHT22;5177;50.068;8.156;2024-01-15T11:24:56;2.30;99.90
10263;DHT22;5177;50.068;8.156;2024-01-15T11:30:21;2.40;99.90
10263;DHT22;5177;50.068;8.156;2024-01-15T11:32:49;2.50;99.90
10263;DHT22;5177;50.068;8.156;2024-01-15T11:35:15;2.50;99.90
10263;DHT22;5177;50.068;8.156;2024-01-15T11:38:15;2.40;99.90
10263;DHT22;5177;50.068;8.156;2024-01-15T11:42:58;2.40;99.90
10263;DHT22;5177;50.068;8.156;2024-01-15T11:45:23;2.40;99.90
10263;DHT22;5177;50.068;8.156;2024-01-15T11:50:17;2.50;99.90
10263;DHT22;5177;50.068;8.156;2024-01-15T11:52:44;2.50;99.90
10263;DHT22;5177;50.068;8.156;2024-01-15T11:55:19;2.70;99.90
10263;DHT22;5177;50.068;8.156;2024-01-15T11:57:45;2.70;99.90
10263;DHT22;5177;50.068;8.156;2024-01-15T12:00:11;2.70;99.90
10263;DHT22;5177;50.068;8.156;2024-01-15T12:02:38;2.70;99.90
10263;DHT22;5177;50.068;8.156;2024-01-15T12:05:04;2.80;99.90
10263;DHT22;5177;50.068;8.156;2024-01-15T12:07:29;2.90;99.90
10263;DHT22;5177;50.068;8.156;2024-01-15T12:09:55;2.90;90.50
10263;DHT22;5177;50.068;8.156;2024-01-15T12:12:27;2.80;85.20
10263;DHT22;5177;50.068;8.156;2024-01-15T12:14:54;2.70;99.00
10263;DHT22;5177;50.068;8.156;2024-01-15T12:17:19;2.80;99.90
10263;DHT22;5177;50.068;8.156;2024-01-15T12:19:45;2.80;99.90
10263;DHT22;5177;50.068;8.156;2024-01-15T12:22:11;2.80;99.90
10263;DHT22;5177;50.068;8.156;2024-01-15T12:24:36;2.90;83.80
10263;DHT22;5177;50.068;8.156;2024-01-15T12:27:02;2.80;40.30
10263;DHT22;5177;50.068;8.156;2024-01-15T12:29:27;2.80;91.60
10263;DHT22;5177;50.068;8.156;2024-01-15T12:31:53;2.90;54.00
10263;DHT22;5177;50.068;8.156;2024-01-15T12:34:18;2.90;69.40
10263;DHT22;5177;50.068;8.156;2024-01-15T12:36:45;2.90;34.30
10263;DHT22;5177;50.068;8.156;2024-01-15T12:39:11;2.90;45.90
10263;DHT22;5177;50.068;8.156;2024-01-15T12:41:37;3.00;13.20
10263;DHT22;5177;50.068;8.156;2024-01-15T12:44:03;3.00;1.00
10263;DHT22;5177;50.068;8.156;2024-01-15T12:46:29;3.00;1.00
10263;DHT22;5177;50.068;8.156;2024-01-15T12:48:55;3.00;1.00
10263;DHT22;5177;50.068;8.156;2024-01-15T12:51:24;3.00;1.00
10263;DHT22;5177;50.068;8.156;2024-01-15T12:53:49;3.00;1.00
10263;DHT22;5177;50.068;8.156;2024-01-15T12:56:15;3.00;1.00
10263;DHT22;5177;50.068;8.156;2024-01-15T12:58:40;3.10;1.00
10263;DHT22;5177;50.068;8.156;2024-01-15T13:01:06;3.20;1.00
10263;DHT22;5177;50.068;8.156;2024-01-15T13:03:31;3.20;1.00
10263;DHT22;5177;50.068;8.156;2024-01-15T13:05:57;3.20;1.00
10263;DHT22;5177;50.068;8.156;2024-01-15T13:08:22;3.20;1.00
10263;DHT22;5177;50.068;8.156;2024-01-15T13:10:50;3.20;1.00
10263;DHT22;5177;50.068;8.156;2024-01-15T13:13:17;3.10;1.00
10263;DHT22;5177;50.068;8.156;2024-01-15T13:15:42;3.10;1.00
10263;DHT22;5177;50.068;8.156;2024-01-15T13:18:08;3.10;1.00
10263;DHT22;5177;50.068;8.156;2024-01-15T13:20:33;3.10;1.00
10263;DHT22;5177;50.068;8.156;2024-01-15T13:22:59;3.20;1.00
10263;DHT22;5177;50.068;8.156;2024-01-15T13:25:24;3.10;1.00
10263;DHT22;5177;50.068;8.156;2024-01-15T13:27:50;3.10;1.00
10263;DHT22;5177;50.068;8.156;2024-01-15T13:30:15;3.10;1.00
10263;DHT22;5177;50.068;8.156;2024-01-15T13:32:41;3.20;1.00
10263;DHT22;5177;50.068;8.156;2024-01-15T13:35:06;3.20;1.00
10263;DHT22;5177;50.068;8.156;2024-01-15T13:37:38;3.30;1.00
10263;DHT22;5177;50.068;8.156;2024-01-15T13:40:07;3.40;1.00
10263;DHT22;5177;50.068;8.156;2024-01-15T13:42:34;3.50;1.00
10263;DHT22;5177;50.068;8.156;2024-01-15T13:44:59;3.60;1.00
10263;DHT22;5177;50.068;8.156;2024-01-15T13:47:25;3.60;1.00
10263;DHT22;5177;50.068;8.156;2024-01-15T13:49:50;3.60;1.00
10263;DHT22;5177;50.068;8.156;2024-01-15T13:52:16;3.60;1.00
10263;DHT22;5177;50.068;8.156;2024-01-15T13:54:41;3.60;1.00
10263;DHT22;5177;50.068;8.156;2024-01-15T13:57:07;3.60;1.00
10263;DHT22;5177;50.068;8.156;2024-01-15T13:59:33;3.50;1.00
10263;DHT22;5177;50.068;8.156;2024-01-15T14:02:00;3.40;1.00
10263;DHT22;5177;50.068;8.156;2024-01-15T14:04:25;3.30;1.00
10263;DHT22;5177;50.068;8.156;2024-01-15T14:06:52;3.30;1.00
10263;DHT22;5177;50.068;8.156;2024-01-15T14:09:17;3.20;1.00
10263;DHT22;5177;50.068;8.156;2024-01-15T14:11:42;3.20;1.00
10263;DHT22;5177;50.068;8.156;2024-01-15T14:14:08;3.20;1.00
10263;DHT22;5177;50.068;8.156;2024-01-15T14:16:34;3.20;1.00
10263;DHT22;5177;50.068;8.156;2024-01-15T14:19:00;3.20;1.00
10263;DHT22;5177;50.068;8.156;2024-01-15T14:21:27;3.20;1.00
10263;DHT22;5177;50.068;8.156;2024-01-15T14:23:53;3.30;1.00
10263;DHT22;5177;50.068;8.156;2024-01-15T14:26:19;3.30;1.00
10263;DHT22;5177;50.068;8.156;2024-01-15T14:28:44;3.30;1.00
10263;DHT22;5177;50.068;8.156;2024-01-15T14:31:11;3.40;1.00
10263;DHT22;5177;50.068;8.156;2024-01-15T14:33:37;3.50;1.00
10263;DHT22;5177;50.068;8.156;2024-01-15T14:36:02;3.60;1.00
10263;DHT22;5177;50.068;8.156;2024-01-15T14:38:28;3.70;1.00
10263;DHT22;5177;50.068;8.156;2024-01-15T14:40:53;3.70;1.00
10263;DHT22;5177;50.068;8.156;2024-01-15T14:43:19;3.70;1.00
10263;DHT22;5177;50.068;8.156;2024-01-15T14:45:45;3.70;1.00
10263;DHT22;5177;50.068;8.156;2024-01-15T14:48:11;3.80;1.00
10263;DHT22;5177;50.068;8.156;2024-01-15T14:50:39;3.80;1.00
10263;DHT22;5177;50.068;8.156;2024-01-15T14:53:04;3.70;1.00
10263;DHT22;5177;50.068;8.156;2024-01-15T14:55:30;3.70;1.00
10263;DHT22;5177;50.068;8.156;2024-01-15T14:57:57;3.60;1.00
10263;DHT22;5177;50.068;8.156;2024-01-15T15:00:23;3.50;1.00
10263;DHT22;5177;50.068;8.156;2024-01-15T15:02:48;3.50;1.00
10263;DHT22;5177;50.068;8.156;2024-01-15T15:05:14;3.40;1.00
10263;DHT22;5177;50.068;8.156;2024-01-15T15:07:42;3.30;1.00
10263;DHT22;5177;50.068;8.156;2024-01-15T15:10:09;3.30;1.00
10263;DHT22;5177;50.068;8.156;2024-01-15T15:12:36;3.30;1.00
10263;DHT22;5177;50.068;8.156;2024-01-15T15:15:02;3.20;1.00
10263;DHT22;5177;50.068;8.156;2024-01-15T15:17:28;3.20;1.00
10263;DHT22;5177;50.068;8.156;2024-01-15T15:19:53;3.20;1.00
10263;DHT22;5177;50.068;8.156;2024-01-15T15:22:19;3.20;1.00
10263;DHT22;5177;50.068;8.156;2024-01-15T15:24:45;3.10;1.00
10263;DHT22;5177;50.068;8.156;2024-01-15T15:27:11;3.10;1.00
10263;DHT22;5177;50.068;8.156;2024-01-15T15:29:36;3.10;1.00
10263;DHT22;5177;50.068;8.156;2024-01-15T15:32:02;3.00;1.00
10263;DHT22;5177;50.068;8.156;2024-01-15T15:34:29;3.00;1.00
10263;DHT22;5177;50.068;8.156;2024-01-15T15:36:54;3.00;1.00
10263;DHT22;5177;50.068;8.156;2024-01-15T15:39:20;3.00;1.00
10263;DHT22;5177;50.068;8.156;2024-01-15T15:41:45;3.00;1.00
10263;DHT22;5177;50.068;8.156;2024-01-15T15:44:13;2.90;1.00
10263;DHT22;5177;50.068;8.156;2024-01-15T15:46:41;2.90;1.00
10263;DHT22;5177;50.068;8.156;2024-01-15T15:49:07;2.80;1.00
10263;DHT22;5177;50.068;8.156;2024-01-15T15:51:33;2.80;1.00
10263;DHT22;5177;50.068;8.156;2024-01-15T15:54:00;2.90;1.00
10263;DHT22;5177;50.068;8.156;2024-01-15T15:56:26;2.80;1.00
10263;DHT22;5177;50.068;8.156;2024-01-15T15:58:52;2.80;1.00
10263;DHT22;5177;50.068;8.156;2024-01-15T16:01:17;2.80;1.00
10263;DHT22;5177;50.068;8.156;2024-01-15T16:03:43;2.80;1.00
10263;DHT22;5177;50.068;8.156;2024-01-15T16:06:09;2.80;1.00
10263;DHT22;5177;50.068;8.156;2024-01-15T16:08:35;2.80;1.00
10263;DHT22;5177;50.068;8.156;2024-01-15T16:11:00;2.80;1.00
10263;DHT22;5177;50.068;8.156;2024-01-15T16:13:26;2.90;1.00